Data for 08/20/2016

Time Sea-Level Adjusted Pressure Absolute Pressure Temperature Relative Humidity Dew Point   
(mb) (inHg) (mb) (inHg) (C) (F) (%) (C) (F)
00:05 1023 30.21 852 25.16 9.2 48.5 55 0.6 33.1
00:10 1023 30.21 852 25.16 9.4 48.9 55 1 33.7
00:15 1023 30.21 852 25.16 9.3 48.7 58 1.4 34.6
00:20 1023 30.21 852 25.16 9.2 48.5 58 1.3 34.3
00:25 1023 30.21 852 25.16 9 48.2 58 1.2 34.1
00:30 1023 30.21 852 25.16 9 48.1 58 1.1 34.1
00:35 1023 30.21 852 25.16 8.9 48.1 58 1.1 34
00:40 1022 30.18 852 25.16 8.5 47.3 60 1.1 33.9
00:45 1022 30.18 852 25.16 8.3 47 57 0.3 32.6
00:50 1022 30.18 852 25.16 8.5 47.3 57 0.4 32.7
00:55 1022 30.18 852 25.16 8.5 47.3 57 0.5 32.9
01:00 1022 30.18 852 25.16 8.6 47.6 58 0.8 33.4
01:05 1022 30.18 852 25.16 8.6 47.4 59 1.1 34.1
01:10 1022 30.18 852 25.16 8.3 47 61 1.3 34.3
01:15 1022 30.18 852 25.16 8.1 46.5 62 1.3 34.3
01:20 1022 30.18 851 25.13 7.9 46.1 63 1.3 34.3
01:25 1022 30.18 851 25.13 7.7 45.9 63 1.1 33.9
01:30 1022 30.18 851 25.13 7.7 45.9 62 1 33.9
01:35 1022 30.18 851 25.13 7.8 46 62 1 33.8
01:40 1022 30.18 851 25.13 7.9 46.3 61 0.9 33.7
01:45 1022 30.18 851 25.13 7.9 46.3 61 0.9 33.6
01:50 1022 30.18 851 25.13 8 46.4 60 0.8 33.5
01:55 1022 30.18 851 25.13 7.9 46.2 60 0.7 33.3
02:00 1022 30.18 851 25.13 7.8 46 60 0.6 33.1
02:05 1022 30.18 851 25.13 7.7 45.8 61 0.7 33.3
02:10 1022 30.18 851 25.13 7.5 45.5 62 0.7 33.2
02:15 1022 30.18 851 25.13 7.7 45.9 60 0.5 32.9
02:20 1022 30.18 851 25.13 7.8 46 60 0.6 33.1
02:25 1022 30.18 851 25.13 7.9 46.2 61 1 33.7
02:30 1022 30.18 851 25.13 7.8 46 63 1.2 34.1
02:35 1022 30.18 851 25.13 7.7 45.8 63 1.1 34
02:40 1022 30.18 851 25.13 7.6 45.7 63 1.1 34
02:45 1022 30.18 851 25.13 7.5 45.5 64 1.1 34
02:50 1022 30.18 851 25.13 7.5 45.4 63 1 33.7
02:55 1022 30.18 851 25.13 7.5 45.6 62 0.8 33.4
03:00 1022 30.18 851 25.13 7.7 45.9 62 0.9 33.7
03:05 1022 30.18 851 25.13 7.9 46.2 61 0.8 33.4
03:10 1022 30.18 851 25.13 8 46.4 60 0.8 33.4
03:15 1022 30.18 851 25.13 7.9 46.1 62 1 33.8
03:20 1022 30.18 851 25.13 7.7 45.8 61 0.7 33.2
03:25 1022 30.18 851 25.13 7.4 45.4 63 0.8 33.5
03:30 1022 30.18 851 25.13 7.1 44.8 65 1.1 34
03:35 1022 30.18 851 25.13 6.9 44.4 66 0.9 33.7
03:40 1022 30.18 851 25.13 6.7 44.1 67 1.1 34
03:45 1022 30.18 851 25.13 6.9 44.4 64 0.5 32.9
03:50 1022 30.18 851 25.13 7.3 45.2 63 0.8 33.4
03:55 1022 30.18 851 25.13 7.3 45.2 65 1.1 34
04:00 1022 30.18 851 25.13 7.4 45.3 64 1 33.7
04:05 1022 30.18 851 25.13 7.4 45.2 64 1.1 34
04:10 1022 30.18 851 25.13 7.3 45.1 63 0.6 33.2
04:15 1022 30.18 851 25.13 7.5 45.6 61 0.6 33
04:20 1022 30.18 851 25.13 7.6 45.7 62 0.8 33.4
04:25 1022 30.18 851 25.13 7.4 45.3 63 0.8 33.5
04:30 1022 30.18 851 25.13 7.2 45 64 0.9 33.6
04:35 1022 30.18 851 25.13 7.1 44.8 64 0.7 33.3
04:40 1022 30.18 851 25.13 7.1 44.7 64 0.7 33.3
04:45 1022 30.18 851 25.13 6.9 44.4 65 0.8 33.5
04:50 1022 30.18 851 25.13 6.8 44.2 65 0.6 33.2
04:55 1022 30.18 851 25.13 6.8 44.2 65 0.7 33.3
05:00 1022 30.18 851 25.13 6.8 44.2 64 0.5 33
05:05 1022 30.18 851 25.13 6.5 43.7 68 1 33.8
05:10 1022 30.18 851 25.13 6 42.8 70 1 33.8
05:15 1022 30.18 851 25.13 5.8 42.4 72 1.2 34.2
05:20 1022 30.18 851 25.13 5.7 42.3 72 1.1 34.1
05:25 1022 30.18 851 25.13 5.9 42.6 70 0.9 33.6
05:30 1022 30.18 851 25.13 6.1 43 70 1 33.7
05:35 1022 30.18 851 25.13 6.1 42.9 69 0.8 33.4
05:40 1022 30.18 851 25.13 6.5 43.7 65 0.5 32.8
05:45 1022 30.18 851 25.13 6.8 44.2 66 0.9 33.7
05:50 1022 30.18 851 25.13 6.3 43.4 67 0.7 33.3
05:55 1022 30.18 851 25.13 6.4 43.5 68 0.8 33.5
06:00 1022 30.18 851 25.13 6.3 43.4 67 0.8 33.4
06:05 1022 30.18 852 25.16 6.4 43.6 68 0.9 33.7
06:10 1022 30.18 852 25.16 6.4 43.5 68 1 33.9
06:15 1022 30.18 852 25.16 6.5 43.6 68 1 33.8
06:20 1022 30.18 852 25.16 6.8 44.2 67 1 33.9
06:25 1022 30.18 852 25.16 7.2 45 65 1.2 34.1
06:30 1022 30.18 852 25.16 7.5 45.5 64 1.1 34
06:35 1022 30.18 852 25.16 7.9 46.2 62 1.2 34.1
06:40 1022 30.18 852 25.16 8.4 47.1 61 1.4 34.4
06:45 1022 30.18 852 25.16 8.8 47.9 60 1.4 34.6
06:50 1022 30.18 852 25.16 8.8 47.8 59 1.3 34.4
06:55 1022 30.18 852 25.16 9 48.1 59 1.3 34.4
07:00 1022 30.18 852 25.16 9.4 48.8 59 1.8 35.3
07:05 1022 30.18 852 25.16 9.5 49.2 59 1.9 35.3
07:10 1022 30.18 852 25.16 9.3 48.7 57 1.3 34.4
07:15 1022 30.18 852 25.16 9.9 49.9 56 1.5 34.8
07:20 1022 30.18 852 25.16 10.5 51 54 1.7 35
07:25 1022 30.18 852 25.16 10.8 51.4 54 1.9 35.4
07:30 1022 30.18 852 25.16 10.9 51.5 53 1.7 35.1
07:35 1022 30.18 852 25.16 11 51.8 52 1.6 35
07:40 1022 30.18 852 25.16 10.7 51.2 53 1.7 35
07:45 1022 30.18 852 25.16 11.2 52.2 54 2.3 36.2
07:50 1022 30.18 852 25.16 11.7 53 49 1.4 34.5
07:55 1022 30.18 852 25.16 12.2 53.9 47 1.1 34.1
08:00 1022 30.18 852 25.16 13 55.5 45 1.4 34.5
08:05 1023 30.21 852 25.16 13 55.4 46 1.6 34.8
08:10 1023 30.21 852 25.16 13 55.5 45 1.5 34.7
08:15 1022 30.18 852 25.16 13.4 56.2 45 1.8 35.3
08:20 1022 30.18 852 25.16 13.8 56.8 45 2 35.6
08:25 1022 30.18 852 25.16 14.1 57.3 44 2.1 35.8
08:30 1023 30.21 852 25.16 14.6 58.4 43 2.3 36.2
08:35 1023 30.21 852 25.16 14.2 57.6 43 1.9 35.5
08:40 1023 30.21 852 25.16 14.4 58 40 1.2 34.2
08:45 1023 30.21 852 25.16 15 59 40 1.7 35
08:50 1023 30.21 852 25.16 15.4 59.6 39 1.7 35
08:55 1023 30.21 852 25.16 15.9 60.5 39 2.2 35.9
09:00 1023 30.21 852 25.16 16.1 61 37 1.4 34.6
09:05 1023 30.21 852 25.16 16.7 62.1 36 1.6 34.9
09:10 1023 30.21 852 25.16 16.7 62.1 35 1.2 34.2
09:15 1023 30.21 852 25.16 17 62.5 35 1.5 34.6
09:20 1023 30.21 852 25.16 17.3 63.2 35 1.9 35.4
09:25 1023 30.21 852 25.16 17.2 63 35 1.8 35.2
09:30 1023 30.21 852 25.16 17.3 63.2 34 1.4 34.6
09:35 1023 30.21 852 25.16 17.8 64 34 1.7 35.1
09:40 1023 30.21 852 25.16 18.2 64.7 32 1.4 34.6
09:45 1023 30.21 852 25.16 18.9 65.9 31 1.6 34.9
09:50 1023 30.21 852 25.16 18.7 65.6 33 2.3 36.1
09:55 1023 30.21 852 25.16 18.8 65.8 33 2.2 35.9
10:00 1023 30.21 852 25.16 18.9 66 32 1.8 35.3
10:05 1023 30.21 852 25.16 18.7 65.7 33 2.4 36.2
10:10 1023 30.21 852 25.16 18.9 66 32 2.1 35.9
10:15 1023 30.21 852 25.16 19 66.2 32 2.1 35.8
10:20 1023 30.21 852 25.16 19.3 66.8 31 2 35.6
10:25 1023 30.21 852 25.16 19.5 67.1 30 1.8 35.2
10:30 1022 30.18 852 25.16 18.7 65.7 32 2 35.6
10:35 1022 30.18 852 25.16 18.4 65.2 33 2.2 35.9
10:40 1022 30.18 852 25.16 18.1 64.5 32 1.1 34.1
10:45 1022 30.18 852 25.16 18.6 65.6 31 1.3 34.3
10:50 1022 30.18 852 25.16 18.6 65.5 31 1.2 34.2
10:55 1022 30.18 852 25.16 19.1 66.3 30 1.4 34.4
11:00 1022 30.18 851 25.13 19.6 67.3 29 1 33.8
11:05 1022 30.18 851 25.13 20.4 68.6 24 -0.6 30.9
11:10 1022 30.18 851 25.13 20.5 68.9 24 -0.7 30.8
11:15 1022 30.18 851 25.13 20.4 68.7 23 -1.1 30
11:20 1022 30.18 851 25.13 20.4 68.8 26 0.3 32.6
11:25 1022 30.18 851 25.13 21 69.8 23 -0.8 30.6
11:30 1022 30.18 851 25.13 21.6 70.8 22 -1.1 30
11:35 1022 30.18 851 25.13 21.3 70.4 24 0.1 32.2
11:40 1022 30.18 851 25.13 20.8 69.4 23 -0.8 30.6
11:45 1022 30.18 851 25.13 21.4 70.5 22 -1 30.2
11:50 1022 30.18 851 25.13 21.9 71.4 21 -1.4 29.5
11:55 1022 30.18 851 25.13 22.3 72.2 20 -1.3 29.6
12:00 1022 30.18 851 25.13 21.8 71.3 22 -0.9 30.4
12:05 1022 30.18 851 25.13 20.7 69.3 22 -1.5 29.2
12:10 1022 30.18 851 25.13 21.1 69.9 20 -2.3 27.8
12:15 1022 30.18 851 25.13 22.2 71.9 19 -2.1 28.2
12:20 1021 30.15 851 25.13 22.2 72 18 -3 26.6
12:25 1021 30.15 851 25.13 22.1 71.8 17 -3.5 25.7
12:30 1021 30.15 851 25.13 22.6 72.7 17 -3.5 25.8
12:35 1021 30.15 851 25.13 23.4 74.1 15 -4.4 24.1
12:40 1021 30.15 851 25.13 23.3 73.9 17 -3.1 26.4
12:45 1021 30.15 851 25.13 22.9 73.3 19 -2 28.4
12:50 1021 30.15 851 25.13 23.3 73.9 15 -4.5 23.8
12:55 1021 30.15 850 25.1 23.4 74.1 14 -5.4 22.2
13:00 1021 30.15 850 25.1 23.4 74 15 -4.7 23.6
13:05 1021 30.15 850 25.1 23 73.5 17 -3 26.7
13:10 1021 30.15 850 25.1 22.8 73 15 -4.7 23.6
13:15 1021 30.15 850 25.1 23 73.5 16 -4.3 24.2
13:20 1021 30.15 850 25.1 23.4 74 15 -4.2 24.4
13:25 1021 30.15 850 25.1 23.5 74.3 17 -3.1 26.4
13:30 1021 30.15 850 25.1 23.3 74 16 -3.8 25.2
13:35 1021 30.15 850 25.1 23.6 74.5 17 -2.6 27.3
13:40 1021 30.15 850 25.1 23.7 74.7 15 -4.3 24.2
13:45 1021 30.15 850 25.1 23.6 74.5 15 -4.3 24.2
13:50 1021 30.15 850 25.1 23.7 74.7 17 -2.2 28
13:55 1021 30.15 850 25.1 23.8 74.8 16 -3.7 25.3
14:00 1021 30.15 850 25.1 23.7 74.6 17 -2.9 26.7
14:05 1021 30.15 850 25.1 23.7 74.7 15 -4.3 24.3
14:10 1021 30.15 850 25.1 23.7 74.7 14 -4.8 23.3
14:15 1021 30.15 850 25.1 23.9 75.1 16 -3.6 25.5
14:20 1021 30.15 850 25.1 24.1 75.3 13 -5.8 21.6
14:25 1021 30.15 850 25.1 24.2 75.6 14 -5.2 22.7
14:30 1021 30.15 850 25.1 24.4 76 14 -4.5 23.8
14:35 1021 30.15 850 25.1 23.9 75 14 -5.2 22.7
14:40 1020 30.12 850 25.1 24.4 75.9 14 -4.4 24.1
14:45 1020 30.12 850 25.1 24.9 76.8 14 -4.3 24.3
14:50 1020 30.12 850 25.1 24.6 76.3 15 -3.8 25.2
14:55 1020 30.12 850 25.1 24.9 76.8 14 -4.6 23.7
15:00 1020 30.12 849 25.07 24.7 76.4 14 -4.5 23.9
15:05 1020 30.12 849 25.07 24.9 76.9 13 -4.9 23.1
15:10 1020 30.12 849 25.07 25.4 77.7 14 -4.2 24.4
15:15 1020 30.12 849 25.07 24.7 76.5 14 -4 24.8
15:20 1020 30.12 849 25.07 24.4 75.8 13 -5.2 22.6
15:25 1020 30.12 849 25.07 24.4 75.9 14 -4.6 23.7
15:30 1020 30.12 849 25.07 24.3 75.7 14 -5 23
15:35 1020 30.12 849 25.07 24.1 75.5 14 -4.6 23.7
15:40 1020 30.12 849 25.07 24.7 76.4 13 -5.1 22.8
15:45 1020 30.12 849 25.07 24.5 76.2 14 -4.2 24.4
15:50 1020 30.12 849 25.07 25.1 77.2 13 -4.7 23.5
15:55 1020 30.12 849 25.07 25.2 77.3 13 -5 23
16:00 1020 30.12 849 25.07 24.7 76.5 13 -5.2 22.6
16:05 1020 30.12 849 25.07 25.3 77.5 12 -5.4 22.2
16:10 1019 30.09 849 25.07 25.6 78.1 13 -4.9 23.3
16:15 1019 30.09 849 25.07 26.2 79.2 12 -5 23.1
16:20 1019 30.09 848 25.04 26.4 79.6 12 -4.8 23.3
16:25 1019 30.09 848 25.04 26.5 79.7 13 -4.3 24.3
16:30 1019 30.09 848 25.04 26.3 79.4 13 -3.9 25
16:35 1019 30.09 848 25.04 26.1 78.9 13 -3.7 25.3
16:40 1019 30.09 848 25.04 25.9 78.6 13 -4.2 24.4
16:45 1019 30.09 848 25.04 25.1 77.2 14 -3.6 25.4
16:50 1019 30.09 848 25.04 25.4 77.6 13 -4.4 24
16:55 1019 30.09 848 25.04 25.5 77.9 14 -3.7 25.3
17:00 1019 30.09 848 25.04 25.4 77.8 14 -3.6 25.4
17:05 1019 30.09 848 25.04 25.4 77.8 14 -3.4 25.8
17:10 1019 30.09 848 25.04 25.3 77.5 14 -3.6 25.6
17:15 1019 30.09 848 25.04 24.4 76 15 -3.9 25
17:20 1019 30.09 848 25.04 23.8 74.9 15 -4.6 23.7
17:25 1019 30.09 848 25.04 24.1 75.4 14 -4.4 24.1
17:30 1019 30.09 848 25.04 24.6 76.3 15 -3.8 25.2
17:35 1019 30.09 848 25.04 24.4 75.9 14 -4.3 24.2
17:40 1019 30.09 848 25.04 24.2 75.5 15 -4.2 24.4
17:45 1018 30.06 848 25.04 23.9 75.1 15 -3.9 25
17:50 1018 30.06 848 25.04 23.9 75 15 -4.3 24.2
17:55 1018 30.06 848 25.04 23.7 74.7 15 -4 24.8
18:00 1018 30.06 847 25.01 23.7 74.7 15 -4.7 23.6
18:05 1018 30.06 847 25.01 23.6 74.4 15 -4.6 23.7
18:10 1018 30.06 847 25.01 23.6 74.4 15 -4.1 24.6
18:15 1018 30.06 847 25.01 23.5 74.3 15 -4.3 24.2
18:20 1018 30.06 847 25.01 23.4 74.1 16 -3.8 25.2
18:25 1018 30.06 847 25.01 23.3 74 15 -4.1 24.6
18:30 1018 30.06 847 25.01 23.3 73.9 17 -3.1 26.4
18:35 1018 30.06 847 25.01 23.2 73.8 18 -2 28.4
18:40 1018 30.06 847 25.01 23.2 73.7 17 -3.1 26.4
18:45 1018 30.06 847 25.01 23.1 73.5 18 -2.1 28.2
18:50 1018 30.06 847 25.01 23 73.4 18 -2.2 28
18:55 1018 30.06 847 25.01 22.9 73.2 18 -2.2 28
19:00 1018 30.06 847 25.01 22.8 73 20 -1.3 29.7
19:05 1018 30.06 847 25.01 22.6 72.6 21 -0.9 30.4
19:10 1018 30.06 847 25.01 22.4 72.2 20 -1.4 29.4
19:15 1018 30.06 847 25.01 22.2 71.9 19 -2.1 28.2
19:20 1018 30.06 847 25.01 22.3 72.2 18 -2.8 27
19:25 1018 30.06 847 25.01 22.4 72.2 18 -3.2 26.3
19:30 1018 30.06 847 25.01 22.3 72.2 20 -1.4 29.4
19:35 1018 30.06 847 25.01 21.2 70.1 27 1.7 35.1
19:40 1018 30.06 847 25.01 19.8 67.6 31 2.2 36
19:45 1018 30.06 847 25.01 19 66.1 33 2.5 36.5
19:50 1018 30.06 847 25.01 18.7 65.6 30 1.1 34
19:55 1018 30.06 847 25.01 19.1 66.3 28 0.1 32.3
20:00 1018 30.06 847 25.01 19 66.2 27 -0.3 31.5
20:05 1018 30.06 847 25.01 18.8 65.9 27 -0.7 30.8
20:10 1018 30.06 847 25.01 19 66.2 26 -0.7 30.8
20:15 1018 30.06 847 25.01 19 66.1 27 -0.5 31.2
20:20 1018 30.06 847 25.01 18.6 65.5 28 -0.2 31.6
20:25 1018 30.06 847 25.01 18.4 65.1 28 -0.3 31.4
20:30 1018 30.06 847 25.01 18 64.3 30 0 32.1
20:35 1018 30.06 847 25.01 17.3 63.2 31 0.2 32.3
20:40 1018 30.06 847 25.01 16.7 62 32 0.2 32.4
20:45 1018 30.06 847 25.01 16.3 61.4 32 -0.1 31.8
20:50 1018 30.06 847 25.01 16.2 61.1 33 -0 32
20:55 1018 30.06 847 25.01 16.1 61 34 0.3 32.5
21:00 1018 30.06 847 25.01 15.9 60.6 36 1.1 33.9
21:05 1018 30.06 847 25.01 15.7 60.3 34 0 32
21:10 1018 30.06 847 25.01 15.8 60.4 36 1 33.8
21:15 1018 30.06 847 25.01 15.7 60.2 35 0.2 32.4
21:20 1018 30.06 847 25.01 15.8 60.4 34 0.2 32.4
21:25 1018 30.06 847 25.01 15.7 60.2 36 0.8 33.4
21:30 1018 30.06 847 25.01 15.5 59.8 34 -0.1 31.7
21:35 1018 30.06 847 25.01 15.5 59.8 33 -0.6 30.8
21:40 1018 30.06 847 25.01 15.6 60.1 33 -0.6 30.9
21:45 1018 30.06 847 25.01 15.8 60.4 32 -0.9 30.4
21:50 1018 30.06 847 25.01 15.9 60.6 32 -0.7 30.8
21:55 1018 30.06 847 25.01 15.9 60.5 32 -0.7 30.8
22:00 1018 30.06 847 25.01 15.8 60.5 33 -0.2 31.7
22:05 1018 30.06 847 25.01 15.7 60.3 32 -0.7 30.7
22:10 1018 30.06 847 25.01 15.4 59.7 33 -0.8 30.6
22:15 1018 30.06 847 25.01 15.4 59.7 32 -1.1 30
22:20 1018 30.06 847 25.01 15.7 60.2 32 -1 30.3
22:25 1018 30.06 847 25.01 15.7 60.3 31 -1.1 30.1
22:30 1018 30.06 847 25.01 15.7 60.2 32 -1 30.2
22:35 1018 30.06 847 25.01 15.5 59.9 32 -0.9 30.4
22:40 1018 30.06 847 25.01 15.3 59.6 33 -0.9 30.3
22:45 1018 30.06 847 25.01 15.2 59.3 32 -1.1 30
22:50 1018 30.06 847 25.01 15.3 59.5 32 -1.1 29.9
22:55 1018 30.06 847 25.01 15.1 59.2 34 -0.7 30.7
23:00 1018 30.06 847 25.01 14.9 58.9 34 -0.8 30.6
23:05 1018 30.06 847 25.01 15 59 32 -1.3 29.6
23:10 1018 30.06 847 25.01 15.1 59.2 33 -1.1 30
23:15 1018 30.06 847 25.01 15.2 59.4 31 -1.6 29.1
23:20 1018 30.06 847 25.01 15.2 59.3 33 -1 30.3
23:25 1018 30.06 847 25.01 14.7 58.5 34 -1.1 30.1
23:30 1018 30.06 847 25.01 14.9 58.9 30 -2.2 28.1
23:35 1018 30.06 847 25.01 15.7 60.3 31 -1.2 29.9
23:40 1018 30.06 847 25.01 15.1 59.2 30 -2.2 28.1
23:45 1018 30.06 847 25.01 15.3 59.5 30 -2.3 27.9
23:50 1018 30.06 847 25.01 15.1 59.3 33 -1 30.2
23:55 1018 30.06 847 25.01 15.3 59.5 29 -2.5 27.5
24:00 1018 30.06 847 25.01 15.5 59.9 30 -1.8 28.8